SILO ALERT LOG


Silo ID Alert Type Alert Message Silo Type Points Depth (mm) Strength Temperature (°C) Humidity (%) Height (mm) Volume (㎥) Weight (t) Flag Time
WJWJR05 Humidity 습도센서 측정값이 80% 초과 59 7010 2455 23.9 90.4 710 80.299 50.765 0 2026-08-29 05:25:45.000
WJWJR01 Humidity 습도센서 측정값이 80% 초과 76 7650 1118 23.5 93 -10 -1.131 0 0 2026-08-29 01:25:59.000
WJWJR05 Humidity 습도센서 측정값이 80% 초과 56 7790 2424 24.1 89.7 -70 -7.917 0 0 2026-08-29 01:25:45.000
WJWJR01 Humidity 습도센서 측정값이 80% 초과 76 7710 1097 24.1 91.8 -70 -7.917 0 0 2026-08-28 21:25:59.000
WJWJR05 Humidity 습도센서 측정값이 80% 초과 56 7880 2451 24.5 88.8 -160 -18.096 0 0 2026-08-28 21:25:43.000
WJWJR01 Humidity 습도센서 측정값이 80% 초과 77 7690 1101 24.6 90.5 -50 -5.655 0 0 2026-08-28 17:26:02.000
WJWJR05 Humidity 습도센서 측정값이 80% 초과 59 7820 2477 25 87.8 -100 -11.31 0 0 2026-08-28 17:25:45.000
WJWJR01 Humidity 습도센서 측정값이 80% 초과 76 7720 1091 24.9 90.2 -80 -9.048 0 0 2026-08-28 13:25:58.000
WJWJR05 Humidity 습도센서 측정값이 80% 초과 56 7750 2450 25.3 87.8 -30 -3.393 0 0 2026-08-28 13:25:45.000
WJWJR01 Humidity 습도센서 측정값이 80% 초과 76 7730 1077 24.9 92.2 -90 -10.179 0 0 2026-08-28 09:25:59.000
WJWJR05 Humidity 습도센서 측정값이 80% 초과 58 8140 2477 25.3 88.4 -420 -47.501 0 0 2026-08-28 09:25:44.000
WJWJR01 Humidity 습도센서 측정값이 80% 초과 84 7730 1084 24.5 91.1 -90 -10.179 0 0 2026-08-28 05:26:00.000
WJWJR05 Humidity 습도센서 측정값이 80% 초과 60 7600 2466 25.2 87.3 120 13.572 8.58 0 2026-08-28 05:25:43.000
WJWJR01 Humidity 습도센서 측정값이 80% 초과 77 7690 1084 25.5 88.8 -50 -5.655 0 0 2026-08-28 01:26:00.000
WJWJR05 Humidity 습도센서 측정값이 80% 초과 57 7780 2506 26.2 84.8 -60 -6.786 0 0 2026-08-28 01:25:43.000
WJWJR01 Humidity 습도센서 측정값이 80% 초과 76 7680 1048 27.5 83.4 -40 -4.524 0 0 2026-08-27 21:26:01.000
WJWJR05 Humidity 습도센서 측정값이 80% 초과 55 7790 2506 28.3 80.1 -70 -7.917 0 0 2026-08-27 21:25:43.000
WJWJR01 Humidity 습도센서 측정값이 80% 초과 76 7690 1069 29.3 89.8 -50 -5.655 0 0 2026-08-27 13:25:59.000
WJWJR05 Humidity 습도센서 측정값이 80% 초과 45 7870 2497 29.1 87.2 -150 -16.965 0 0 2026-08-27 13:25:42.000
WJWJR01 Humidity 습도센서 측정값이 80% 초과 77 7730 1103 25.4 92.9 -90 -10.179 0 0 2026-08-27 09:25:56.000

[첫 페이지] [1] [2] [3] 4 [5] [6] [7] [8] [마지막 페이지]